Sunday, July 22, 2018, 10:10 AM EDT
Back to Local

KPBG, Plattsburgh International Airport

Location: Plattsburgh, NY, United States Lat: 44.65
Local Time: 10:10 AM EDT (14:10 GMT) Lon: -73.467
Time Zone: US/Eastern Elev: 239 ft

Show me the last for .
Show Decoded

2018-07-22 09:53 METAR KPBG 221353Z AUTO 13003KT 10SM FEW065 OVC095 21/13 A3003 RMK AO2 SLP169
                 T02060128 =
2018-07-22 08:53 METAR KPBG 221253Z AUTO 00000KT 10SM FEW095 21/14 A3003 RMK AO2 SLP168 T02060139
                 =
2018-07-22 07:53 METAR KPBG 221153Z AUTO 00000KT 10SM SCT050 19/14 A3003 RMK AO2 SLP167 T01940139
                 10206 20156 58001 =
2018-07-22 06:53 METAR KPBG 221053Z AUTO 00000KT 10SM FEW060 SCT100 17/13 A3003 RMK AO2 SLP167
                 T01720128 =
2018-07-22 05:53 METAR KPBG 220953Z AUTO 25003KT 10SM OVC080 16/13 A3003 RMK AO2 SLP168 T01610128
                 =
2018-07-22 04:53 METAR KPBG 220853Z AUTO 00000KT 10SM CLR 16/12 A3003 RMK AO2 SLP168 T01560117
                 57005 =
2018-07-22 03:53 METAR KPBG 220753Z AUTO 15006KT 10SM CLR 18/11 A3003 RMK AO2 SLP170 T01830111 =
2018-07-22 02:53 METAR KPBG 220653Z AUTO 15004KT 10SM CLR 19/12 A3004 RMK AO2 SLP170 T01890117 =
2018-07-22 01:53 METAR KPBG 220553Z AUTO 13008KT 10SM CLR 21/12 A3004 RMK AO2 SLP172 T02060117
                 10250 20200 58003 =
2018-07-22 00:53 METAR KPBG 220453Z AUTO 18008KT 10SM CLR 21/13 A3005 RMK AO2 SLP173 T02110128
                 402940128 =
2018-07-21 23:53 METAR KPBG 220353Z AUTO 17007KT 10SM CLR 21/14 A3005 RMK AO2 SLP176 T02110139 =
2018-07-21 22:53 METAR KPBG 220253Z AUTO 17006KT 10SM CLR 22/13 A3005 RMK AO2 SLP176 T02170133
                 51011 =
2018-07-21 21:53 METAR KPBG 220153Z AUTO 16004KT 10SM CLR 22/14 A3005 RMK AO2 SLP175 T02220139 =
2018-07-21 20:53 METAR KPBG 220053Z AUTO 17004KT 10SM CLR 23/14 A3003 RMK AO2 SLP170 T02330144 =
2018-07-21 19:53 METAR KPBG 212353Z AUTO 16006KT 10SM CLR 26/14 A3002 RMK AO2 SLP165 T02560139
                 10294 20256 55001 =
2018-07-21 18:53 METAR KPBG 212253Z AUTO 11005KT 10SM CLR 28/13 A3000 RMK AO2 SLP160 T02830128 =
2018-07-21 17:53 METAR KPBG 212153Z AUTO 10005KT 10SM CLR 28/13 A3001 RMK AO2 SLP161 T02830133 =
2018-07-21 16:53 METAR KPBG 212053Z AUTO 14006KT 10SM CLR 29/13 A3002 RMK AO2 SLP166 T02890133
                 56015 =
2018-07-21 15:53 METAR KPBG 211953Z AUTO 13005KT 10SM CLR 28/14 A3004 RMK AO2 SLP171 T02830144 =
2018-07-21 14:53 METAR KPBG 211853Z AUTO 16006KT 10SM CLR 28/15 A3005 RMK AO2 SLP175 T02830150 =
2018-07-21 13:53 METAR KPBG 211753Z AUTO 14006KT 10SM CLR 27/14 A3007 RMK AO2 SLP181 T02670144
                 10272 20206 58014 =
2018-07-21 12:53 METAR KPBG 211653Z AUTO 14008KT 10SM CLR 26/14 A3008 RMK AO2 SLP186 T02610139 =
2018-07-21 11:53 METAR KPBG 211553Z AUTO 13010KT 10SM CLR 26/14 A3010 RMK AO2 SLP192 T02560144 =
2018-07-21 10:53 METAR KPBG 211453Z AUTO 13011KT 10SM CLR 25/15 A3011 RMK AO2 SLP195 T02500150
                 58002 =

Support USWX by starting your Amazon purchase here.